Time;durP1;ratioP1;P1;durP2;ratioP2;P2;SDS_P1;SDS_P2;PMS_P1;PMS_P2;Temp;Humidity;BMP_temperature;BMP_pressure;BME280_temperature;BME280_humidity;BME280_pressure;Samples;Min_cycle;Max_cycle;Signal;HPM_P1;HPM_P2
2023/05/02 00:00:44;;;;;;;;;;;;;;;10.83;100.00;-18319.56;4991725;28;20021;-81
2023/05/02 00:03:10;;;;;;;;;;;;;;;10.86;100.00;-18320.38;4999586;28;19918;-81
2023/05/02 00:05:35;;;;;;;;;;;;;;;10.88;100.00;-18320.94;4993101;28;19917;-81
2023/05/02 00:08:01;;;;;;;;;;;;;;;10.77;100.00;-18317.91;4993781;28;19924;-80
2023/05/02 00:10:26;;;;;;;;;;;;;;;10.77;100.00;-18317.91;4985941;28;20024;-81
2023/05/02 00:12:52;;;;;;;;;;;;;;;10.82;100.00;-18319.28;4991394;28;19929;-80
2023/05/02 00:15:17;;;;;;;;;;;;;;;10.87;100.00;-18320.53;4994754;28;19917;-80
2023/05/02 00:17:42;;;;;;;;;;;;;;;10.89;100.00;-18321.06;4994452;28;19918;-80
2023/05/02 00:20:08;;;;;;;;;;;;;;;10.96;100.00;-18323.00;4989877;28;19921;-81
2023/05/02 00:22:34;;;;;;;;;;;;;;;11.01;100.00;-18324.38;4992880;28;20028;-80
2023/05/02 00:25:00;;;;;;;;;;;;;;;10.98;100.00;-18323.69;4992969;28;19989;-80
2023/05/02 00:27:25;;;;;;;;;;;;;;;11.01;100.00;-18324.50;4993444;28;20437;-81
2023/05/02 00:29:51;;;;;;;;;;;;;;;11.04;100.00;-18325.34;4990466;28;19925;-80
2023/05/02 00:32:16;;;;;;;;;;;;;;;11.04;100.00;-18325.19;4991921;28;19921;-80
2023/05/02 00:34:42;;;;;;;;;;;;;;;11.05;100.00;-18325.59;4991850;28;19917;-80
2023/05/02 00:37:07;;;;;;;;;;;;;;;11.29;100.00;-18331.94;4997416;28;19945;-80
2023/05/02 00:39:35;;;;;;;;;;;;;;;11.37;100.00;-18334.13;5000706;28;20331;-81
2023/05/02 00:42:01;;;;;;;;;;;;;;;11.42;100.00;-18335.34;4993937;28;20037;-80
2023/05/02 00:44:26;;;;;;;;;;;;;;;11.34;100.00;-18333.16;4992044;28;19917;-80
2023/05/02 00:46:52;;;;;;;;;;;;;;;11.28;100.00;-18331.66;4991634;28;19925;-80
2023/05/02 00:49:17;;;;;;;;;;;;;;;11.22;100.00;-18330.00;4989402;28;19918;-81
2023/05/02 00:51:43;;;;;;;;;;;;;;;11.20;100.00;-18329.47;4994248;28;19921;-80
2023/05/02 00:54:08;;;;;;;;;;;;;;;11.16;100.00;-18328.34;4989517;28;19928;-80
2023/05/02 00:56:33;;;;;;;;;;;;;;;11.20;100.00;-18329.47;4992176;28;19928;-80
2023/05/02 00:59:00;;;;;;;;;;;;;;;11.15;100.00;-18328.09;4993232;28;20004;-80
2023/05/02 01:01:33;;;;;;;;;;;;;;;11.21;100.00;-18329.72;4995379;28;20005;-80
2023/05/02 01:03:58;;;;;;;;;;;;;;;11.23;100.00;-18330.28;4994472;28;19918;-81
2023/05/02 01:06:42;;;;;;;;;;;;;;;11.20;100.00;-18329.59;4993637;28;20411;-81
2023/05/02 01:09:17;;;;;;;;;;;;;;;11.22;100.00;-18330.00;4994177;28;20424;-80
2023/05/02 01:12:04;;;;;;;;;;;;;;;11.23;100.00;-18330.28;4995069;28;19953;-80
2023/05/02 01:14:32;;;;;;;;;;;;;;;11.24;100.00;-18330.69;4991196;28;19918;-81
2023/05/02 01:16:58;;;;;;;;;;;;;;;11.23;100.00;-18330.28;4991338;28;19925;-81
2023/05/02 01:19:43;;;;;;;;;;;;;;;11.26;100.00;-18331.25;4994399;28;19941;-80
2023/05/02 01:22:10;;;;;;;;;;;;;;;11.30;100.00;-18332.34;4992104;28;19917;-81
2023/05/02 01:24:47;;;;;;;;;;;;;;;11.29;100.00;-18332.06;4997552;28;19917;-81
2023/05/02 01:27:13;;;;;;;;;;;;;;;11.23;100.00;-18330.41;4989328;28;19922;-81
2023/05/02 01:29:39;;;;;;;;;;;;;;;11.25;100.00;-18330.84;4992230;28;19917;-81
2023/05/02 01:32:06;;;;;;;;;;;;;;;11.22;100.00;-18330.00;4991898;28;19922;-81
2023/05/02 01:34:33;;;;;;;;;;;;;;;11.25;100.00;-18330.84;4991027;28;19928;-80
2023/05/02 01:37:00;;;;;;;;;;;;;;;11.26;100.00;-18331.09;4990760;28;19925;-81
2023/05/02 01:39:25;;;;;;;;;;;;;;;11.22;100.00;-18330.00;4995001;28;19925;-81
2023/05/02 01:41:52;;;;;;;;;;;;;;;11.24;100.00;-18330.69;4991875;28;19918;-81
2023/05/02 01:44:19;;;;;;;;;;;;;;;11.26;100.00;-18331.09;4989924;28;19918;-81
2023/05/02 01:46:45;;;;;;;;;;;;;;;11.27;100.00;-18331.50;4989862;28;19924;-81
2023/05/02 01:49:10;;;;;;;;;;;;;;;11.24;100.00;-18330.56;4991360;28;19924;-80
2023/05/02 01:51:39;;;;;;;;;;;;;;;11.25;100.00;-18330.97;4995625;28;19921;-80
2023/05/02 01:54:07;;;;;;;;;;;;;;;11.23;100.00;-18330.41;4989271;28;20426;-80
2023/05/02 01:56:34;;;;;;;;;;;;;;;11.23;100.00;-18330.28;4990346;28;19922;-80
2023/05/02 01:59:00;;;;;;;;;;;;;;;11.28;100.00;-18331.66;4989529;28;19921;-80
2023/05/02 02:01:26;;;;;;;;;;;;;;;11.25;100.00;-18330.97;4986862;28;20325;-81
2023/05/02 02:03:53;;;;;;;;;;;;;;;11.33;100.00;-18333.03;4994508;28;20296;-81
2023/05/02 02:06:20;;;;;;;;;;;;;;;11.36;100.00;-18333.84;4991997;28;20377;-81
2023/05/02 02:08:45;;;;;;;;;;;;;;;11.38;100.00;-18334.25;4992462;28;19933;-80
2023/05/02 02:11:13;;;;;;;;;;;;;;;11.32;100.00;-18332.75;4993755;28;19925;-81
2023/05/02 02:13:43;;;;;;;;;;;;;;;11.35;100.00;-18333.56;4988383;28;19925;-80
2023/05/02 02:16:11;;;;;;;;;;;;;;;11.21;100.00;-18329.72;4991858;28;19918;-80
2023/05/02 02:18:37;;;;;;;;;;;;;;;11.33;100.00;-18332.88;4993594;28;19917;-80
2023/05/02 02:21:05;;;;;;;;;;;;;;;11.22;100.00;-18330.00;4986548;28;19917;-80
2023/05/02 02:23:52;;;;;;;;;;;;;;;11.17;100.00;-18328.63;4989298;28;19929;-80
2023/05/02 02:26:19;;;;;;;;;;;;;;;11.16;100.00;-18328.34;4988606;28;19925;-80
2023/05/02 02:28:45;;;;;;;;;;;;;;;11.18;100.00;-18328.91;4985571;28;19918;-80
2023/05/02 02:31:10;;;;;;;;;;;;;;;11.19;100.00;-18329.31;4990490;28;19928;-80
2023/05/02 02:33:35;;;;;;;;;;;;;;;11.21;100.00;-18329.88;4989042;28;19921;-80
2023/05/02 02:36:10;;;;;;;;;;;;;;;11.21;100.00;-18329.88;4989281;28;20001;-81
2023/05/02 02:38:42;;;;;;;;;;;;;;;11.22;100.00;-18330.00;4989173;28;19924;-80
2023/05/02 02:41:18;;;;;;;;;;;;;;;11.22;100.00;-18330.16;4990404;28;19941;-80
2023/05/02 02:44:08;;;;;;;;;;;;;;;11.22;100.00;-18330.00;4990562;28;19928;-81
2023/05/02 02:46:37;;;;;;;;;;;;;;;11.20;100.00;-18329.47;4991018;28;19956;-80
2023/05/02 02:49:11;;;;;;;;;;;;;;;11.18;100.00;-18328.91;4987586;28;19922;-80
2023/05/02 02:51:37;;;;;;;;;;;;;;;11.13;100.00;-18327.53;5003180;28;19921;-80
2023/05/02 02:54:08;;;;;;;;;;;;;;;11.12;100.00;-18327.25;4989117;28;19921;-81
2023/05/02 02:56:45;;;;;;;;;;;;;;;11.09;100.00;-18326.44;4987472;28;20679;-81
2023/05/02 02:59:32;;;;;;;;;;;;;;;11.00;100.00;-18324.25;4985419;28;19921;-80
2023/05/02 03:02:07;;;;;;;;;;;;;;;10.95;100.00;-18322.72;4989544;28;19972;-81
2023/05/02 03:04:34;;;;;;;;;;;;;;;10.95;100.00;-18322.72;4989354;28;19924;-80
2023/05/02 03:06:59;;;;;;;;;;;;;;;10.95;100.00;-18322.72;4993913;28;20415;-81
2023/05/02 03:09:29;;;;;;;;;;;;;;;10.89;100.00;-18321.22;4994299;28;19917;-81
2023/05/02 03:11:54;;;;;;;;;;;;;;;10.87;100.00;-18320.53;4991643;28;19922;-81
2023/05/02 03:14:19;;;;;;;;;;;;;;;10.80;100.00;-18318.88;4994888;28;19976;-80
2023/05/02 03:16:44;;;;;;;;;;;;;;;10.77;100.00;-18318.06;4994412;28;19932;-80
2023/05/02 03:19:10;;;;;;;;;;;;;;;10.71;100.00;-18316.28;4991207;28;19993;-80
2023/05/02 03:21:35;;;;;;;;;;;;;;;10.64;100.00;-18314.47;5000652;28;19992;-80
2023/05/02 03:24:02;;;;;;;;;;;;;;;10.57;100.00;-18312.69;4999353;28;19921;-80
2023/05/02 03:26:27;;;;;;;;;;;;;;;10.56;100.00;-18312.44;4994439;28;20351;-81
2023/05/02 03:28:53;;;;;;;;;;;;;;;10.57;100.00;-18312.69;4992073;28;19948;-80
2023/05/02 03:31:18;;;;;;;;;;;;;;;10.52;100.00;-18311.31;4994784;28;20561;-80
2023/05/02 03:33:43;;;;;;;;;;;;;;;10.50;100.00;-18310.78;4991265;28;19921;-80
2023/05/02 03:36:09;;;;;;;;;;;;;;;10.45;100.00;-18309.25;4994800;28;19924;-80
2023/05/02 03:38:34;;;;;;;;;;;;;;;10.45;100.00;-18309.25;4994778;28;20008;-80
2023/05/02 03:40:59;;;;;;;;;;;;;;;10.45;100.00;-18309.25;4996027;28;20384;-80
2023/05/02 03:43:24;;;;;;;;;;;;;;;10.45;100.00;-18309.25;4998668;28;19922;-81
2023/05/02 03:45:50;;;;;;;;;;;;;;;10.41;100.00;-18308.31;4995386;28;20020;-80
2023/05/02 03:48:15;;;;;;;;;;;;;;;10.37;100.00;-18307.34;4999363;28;20027;-80
2023/05/02 03:50:41;;;;;;;;;;;;;;;10.41;100.00;-18308.16;4993104;28;19917;-80
2023/05/02 03:53:08;;;;;;;;;;;;;;;10.41;100.00;-18308.16;4992778;28;20000;-80
2023/05/02 03:55:37;;;;;;;;;;;;;;;10.42;100.00;-18308.56;4995503;28;19960;-80
2023/05/02 03:58:02;;;;;;;;;;;;;;;10.40;100.00;-18308.03;4994927;28;19921;-80
2023/05/02 04:00:28;;;;;;;;;;;;;;;10.35;100.00;-18306.66;4990714;28;19997;-80
2023/05/02 04:02:53;;;;;;;;;;;;;;;10.36;100.00;-18307.06;4988911;28;19964;-81
2023/05/02 04:05:18;;;;;;;;;;;;;;;10.49;100.00;-18310.38;4996318;28;19924;-81
2023/05/02 04:07:43;;;;;;;;;;;;;;;10.41;100.00;-18308.31;4998978;28;19952;-82
2023/05/02 04:10:15;;;;;;;;;;;;;;;10.45;100.00;-18309.25;5000776;28;19917;-81
2023/05/02 04:12:40;;;;;;;;;;;;;;;10.44;100.00;-18309.13;4994761;28;19933;-82
2023/05/02 04:15:05;;;;;;;;;;;;;;;10.48;100.00;-18310.22;4999669;28;19914;-81
2023/05/02 04:17:31;;;;;;;;;;;;;;;10.50;100.00;-18310.78;4998418;28;19918;-81
2023/05/02 04:19:56;;;;;;;;;;;;;;;10.49;100.00;-18310.50;4995149;28;19972;-81
2023/05/02 04:22:21;;;;;;;;;;;;;;;10.47;100.00;-18309.81;5001477;28;20329;-81
2023/05/02 04:24:46;;;;;;;;;;;;;;;10.51;100.00;-18311.06;4994407;28;19921;-81
2023/05/02 04:27:12;;;;;;;;;;;;;;;10.47;100.00;-18309.81;4990234;28;19972;-81
2023/05/02 04:29:37;;;;;;;;;;;;;;;10.43;100.00;-18308.84;4992007;28;19917;-81
2023/05/02 04:32:02;;;;;;;;;;;;;;;10.43;100.00;-18308.72;5008891;28;19955;-80
2023/05/02 04:34:27;;;;;;;;;;;;;;;10.43;100.00;-18308.72;4995276;28;19979;-80
2023/05/02 04:36:52;;;;;;;;;;;;;;;10.38;100.00;-18307.47;4989929;28;19922;-80
2023/05/02 04:39:18;;;;;;;;;;;;;;;10.30;100.00;-18305.28;4988845;28;19918;-81
2023/05/02 04:41:43;;;;;;;;;;;;;;;10.38;100.00;-18307.63;4989161;28;19924;-80
2023/05/02 04:44:08;;;;;;;;;;;;;;;10.40;100.00;-18308.03;4990250;28;20512;-80
2023/05/02 04:46:33;;;;;;;;;;;;;;;10.33;100.00;-18306.25;4991747;28;19925;-80
2023/05/02 04:48:59;;;;;;;;;;;;;;;10.33;100.00;-18306.25;4990914;28;19928;-81
2023/05/02 04:51:30;;;;;;;;;;;;;;;10.27;100.00;-18304.44;5049837;23;19922;-88
2023/05/02 04:53:56;;;;;;;;;;;;;;;10.19;100.00;-18302.25;4962705;28;20117;-88
2023/05/02 04:56:41;;;;;;;;;;;;;;;10.22;100.00;-18303.06;4941272;28;20494;-87
2023/05/02 04:59:15;;;;;;;;;;;;;;;10.27;100.00;-18304.44;4926141;28;19961;-87
2023/05/02 05:01:47;;;;;;;;;;;;;;;10.33;100.00;-18306.09;4913759;28;20009;-88
2023/05/02 05:04:33;;;;;;;;;;;;;;;10.34;100.00;-18306.38;4902443;28;20580;-88
2023/05/02 05:06:58;;;;;;;;;;;;;;;10.39;100.00;-18307.75;4897543;28;19919;-88
2023/05/02 05:09:57;;;;;;;;;;;;;;;10.34;100.00;-18306.38;4892039;29;19919;-86
2023/05/02 05:12:27;;;;;;;;;;;;;;;10.32;100.00;-18305.81;4845822;29;19924;-88
2023/05/02 05:15:07;;;;;;;;;;;;;;;10.27;100.00;-18304.44;4736427;29;7197829;-89
2023/05/02 05:17:37;;;;;;;;;;;;;;;10.27;100.00;-18304.44;4564124;29;8420526;-88
2023/05/02 05:20:03;;;;;;;;;;;;;;;10.22;100.00;-18303.22;5013722;23;19964;-82
2023/05/02 05:22:29;;;;;;;;;;;;;;;10.16;100.00;-18301.69;5014745;28;19917;-81
2023/05/02 05:24:54;;;;;;;;;;;;;;;10.10;100.00;-18300.06;5014526;28;19965;-82
2023/05/02 05:27:20;;;;;;;;;;;;;;;10.03;100.00;-18298.13;5017253;28;19925;-81
2023/05/02 05:29:45;;;;;;;;;;;;;;;10.02;100.00;-18297.72;5012037;28;19921;-81
2023/05/02 05:32:10;;;;;;;;;;;;;;;9.95;100.00;-18295.94;5014591;28;19921;-82
2023/05/02 05:34:36;;;;;;;;;;;;;;;9.56;100.00;-18285.34;5015409;28;19921;-81
2023/05/02 05:37:01;;;;;;;;;;;;;;;9.38;100.00;-18280.53;5014987;28;19949;-81
2023/05/02 05:39:27;;;;;;;;;;;;;;;9.26;100.00;-18277.50;5012484;28;19955;-81
2023/05/02 05:41:53;;;;;;;;;;;;;;;9.20;100.00;-18275.84;5014493;28;20680;-81
2023/05/02 05:44:20;;;;;;;;;;;;;;;9.09;100.00;-18272.81;5015208;28;19921;-81
2023/05/02 05:46:46;;;;;;;;;;;;;;;9.04;100.00;-18271.59;5014390;28;19917;-81
2023/05/02 05:49:11;;;;;;;;;;;;;;;8.86;100.00;-18266.50;5013954;28;19921;-81
2023/05/02 05:51:36;;;;;;;;;;;;;;;8.84;100.00;-18265.94;5014818;28;19981;-81
2023/05/02 05:54:01;;;;;;;;;;;;;;;8.79;100.00;-18264.84;5015853;28;19928;-81
2023/05/02 05:56:27;;;;;;;;;;;;;;;8.85;100.00;-18266.22;5014471;28;19925;-81
2023/05/02 05:58:53;;;;;;;;;;;;;;;8.81;100.00;-18265.41;5013125;28;19928;-81
2023/05/02 06:01:18;;;;;;;;;;;;;;;8.77;100.00;-18264.28;5009581;28;19925;-81
2023/05/02 06:03:44;;;;;;;;;;;;;;;8.64;100.00;-18260.56;5015177;28;19929;-81
2023/05/02 06:06:09;;;;;;;;;;;;;;;8.58;100.00;-18259.06;5012091;28;19913;-81
2023/05/02 06:08:34;;;;;;;;;;;;;;;8.58;100.00;-18259.06;5017611;28;19939;-81
2023/05/02 06:10:59;;;;;;;;;;;;;;;8.48;100.00;-18256.31;5019896;28;19918;-81
2023/05/02 06:13:25;;;;;;;;;;;;;;;8.40;100.00;-18254.25;5018696;28;19921;-81
2023/05/02 06:15:50;;;;;;;;;;;;;;;8.26;100.00;-18250.53;5016339;28;19971;-81
2023/05/02 06:18:15;;;;;;;;;;;;;;;8.28;100.00;-18250.94;5014256;28;19927;-81
2023/05/02 06:20:41;;;;;;;;;;;;;;;8.29;100.00;-18251.22;5009535;28;19929;-81
2023/05/02 06:23:06;;;;;;;;;;;;;;;8.28;100.00;-18250.94;5010966;28;19914;-81
2023/05/02 06:25:32;;;;;;;;;;;;;;;8.33;100.00;-18252.44;5014941;28;19952;-80
2023/05/02 06:27:58;;;;;;;;;;;;;;;8.29;100.00;-18251.22;5015501;28;19943;-81
2023/05/02 06:30:23;;;;;;;;;;;;;;;8.25;100.00;-18250.09;5012777;28;20008;-80
2023/05/02 06:32:48;;;;;;;;;;;;;;;8.22;100.00;-18249.41;5018946;28;19928;-80
2023/05/02 06:35:13;;;;;;;;;;;;;;;8.33;100.00;-18252.31;5016610;28;19913;-80
2023/05/02 06:37:38;;;;;;;;;;;;;;;8.38;100.00;-18253.69;5018589;28;19920;-81
2023/05/02 06:40:04;;;;;;;;;;;;;;;8.42;100.00;-18254.66;5028452;28;19968;-80
2023/05/02 06:42:29;;;;;;;;;;;;;;;8.40;100.00;-18254.25;5019238;28;19971;-81
2023/05/02 06:44:55;;;;;;;;;;;;;;;8.36;100.00;-18253.28;5019516;28;19996;-80
2023/05/02 06:47:21;;;;;;;;;;;;;;;8.30;100.00;-18251.63;5022894;28;19913;-80
2023/05/02 06:49:47;;;;;;;;;;;;;;;8.42;100.00;-18254.66;5021742;28;19920;-80
2023/05/02 06:52:12;;;;;;;;;;;;;;;8.33;100.00;-18252.44;5019406;28;19921;-80
2023/05/02 06:54:38;;;;;;;;;;;;;;;8.26;100.00;-18250.53;5023395;28;19955;-81
2023/05/02 06:57:03;;;;;;;;;;;;;;;8.26;100.00;-18250.53;5022212;28;20662;-81
2023/05/02 06:59:28;;;;;;;;;;;;;;;8.35;100.00;-18252.88;5023336;28;19913;-81
2023/05/02 07:01:54;;;;;;;;;;;;;;;8.36;100.00;-18253.28;5019888;28;20396;-81
2023/05/02 07:04:19;;;;;;;;;;;;;;;8.42;100.00;-18254.78;5048494;28;19920;-81
2023/05/02 07:06:45;;;;;;;;;;;;;;;8.39;100.00;-18253.84;5029837;28;19961;-81
2023/05/02 07:09:11;;;;;;;;;;;;;;;8.38;100.00;-18253.56;5022404;28;19925;-81
2023/05/02 07:11:36;;;;;;;;;;;;;;;8.45;100.00;-18255.47;5021082;28;20404;-81
2023/05/02 07:14:01;;;;;;;;;;;;;;;8.33;100.00;-18252.44;5022453;28;19999;-81
2023/05/02 07:16:26;;;;;;;;;;;;;;;8.47;100.00;-18256.16;5023595;28;19917;-81
2023/05/02 07:18:52;;;;;;;;;;;;;;;8.61;100.00;-18259.75;5024094;28;19963;-81
2023/05/02 07:21:18;;;;;;;;;;;;;;;8.72;100.00;-18262.78;5033860;28;19914;-81
2023/05/02 07:23:43;;;;;;;;;;;;;;;8.63;100.00;-18260.31;5036824;28;20012;-81
2023/05/02 07:26:08;;;;;;;;;;;;;;;8.70;100.00;-18262.22;5023157;28;19921;-81
2023/05/02 07:28:34;;;;;;;;;;;;;;;8.74;100.00;-18263.47;5020031;28;19928;-81
2023/05/02 07:30:59;;;;;;;;;;;;;;;8.87;100.00;-18266.78;5015347;28;20482;-81
2023/05/02 07:33:24;;;;;;;;;;;;;;;8.90;100.00;-18267.59;5037949;28;20372;-81
2023/05/02 07:35:50;;;;;;;;;;;;;;;8.95;100.00;-18268.97;5023131;28;19914;-81
2023/05/02 07:38:15;;;;;;;;;;;;;;;9.08;100.00;-18272.41;5022370;28;19921;-81
2023/05/02 07:40:40;;;;;;;;;;;;;;;9.06;100.00;-18272.00;5022112;28;19924;-81
2023/05/02 07:43:05;;;;;;;;;;;;;;;9.12;100.00;-18273.50;5019296;28;19913;-81
2023/05/02 07:45:31;;;;;;;;;;;;;;;9.09;100.00;-18272.81;5020792;28;20125;-81
2023/05/02 07:47:56;;;;;;;;;;;;;;;9.18;100.00;-18275.31;5020804;28;19980;-81
2023/05/02 07:50:21;;;;;;;;;;;;;;;9.30;100.00;-18278.31;5021278;28;20343;-80
2023/05/02 07:52:47;;;;;;;;;;;;;;;9.26;100.00;-18277.50;5022193;28;19917;-81
2023/05/02 07:55:12;;;;;;;;;;;;;;;9.26;100.00;-18277.50;5018817;28;19925;-81
2023/05/02 07:57:37;;;;;;;;;;;;;;;9.19;100.00;-18275.56;5016754;28;19920;-81
2023/05/02 08:00:03;;;;;;;;;;;;;;;9.18;100.00;-18275.31;5019757;28;20375;-80
2023/05/02 08:02:29;;;;;;;;;;;;;;;9.14;100.00;-18274.06;5020660;28;19914;-81
2023/05/02 08:04:54;;;;;;;;;;;;;;;9.37;100.00;-18280.25;5026670;28;20456;-81
2023/05/02 08:07:20;;;;;;;;;;;;;;;9.20;100.00;-18275.84;5022335;28;19913;-81
2023/05/02 08:09:45;;;;;;;;;;;;;;;9.50;100.00;-18283.81;5021064;28;19921;-81
2023/05/02 08:12:10;;;;;;;;;;;;;;;9.53;100.00;-18284.50;5021063;28;19918;-81
2023/05/02 08:14:35;;;;;;;;;;;;;;;9.43;100.00;-18281.91;5021720;28;19951;-81
2023/05/02 08:17:01;;;;;;;;;;;;;;;9.36;100.00;-18279.97;5019940;28;20277;-81
2023/05/02 08:19:26;;;;;;;;;;;;;;;9.50;100.00;-18283.81;5014636;28;20336;-81
2023/05/02 08:21:54;;;;;;;;;;;;;;;9.53;100.00;-18284.66;5017421;28;20065;-81
2023/05/02 08:24:20;;;;;;;;;;;;;;;9.55;100.00;-18285.06;5034487;28;19964;-81
2023/05/02 08:26:45;;;;;;;;;;;;;;;9.70;100.00;-18289.19;5018998;28;19917;-81
2023/05/02 08:29:11;;;;;;;;;;;;;;;9.84;100.00;-18293.03;5019533;28;19924;-81
2023/05/02 08:31:37;;;;;;;;;;;;;;;10.05;100.00;-18298.53;5021167;28;20313;-81
2023/05/02 08:34:02;;;;;;;;;;;;;;;10.00;100.00;-18297.16;5020529;28;20355;-81
2023/05/02 08:36:28;;;;;;;;;;;;;;;10.01;100.00;-18297.44;5021268;28;19913;-81
2023/05/02 08:38:53;;;;;;;;;;;;;;;9.99;100.00;-18296.88;5015865;28;19918;-81
2023/05/02 08:41:19;;;;;;;;;;;;;;;10.14;100.00;-18301.16;5019040;28;19965;-81
2023/05/02 08:43:45;;;;;;;;;;;;;;;10.34;100.00;-18306.38;5021045;28;19963;-82
2023/05/02 08:46:11;;;;;;;;;;;;;;;10.41;100.00;-18308.31;5014131;28;19925;-81
2023/05/02 08:48:38;;;;;;;;;;;;;;;10.34;100.00;-18306.50;5011677;28;19918;-81
2023/05/02 08:51:03;;;;;;;;;;;;;;;10.35;100.00;-18306.66;5009647;28;20177;-81
2023/05/02 08:53:31;;;;;;;;;;;;;;;10.25;100.00;-18303.91;5011218;28;19918;-82
2023/05/02 08:55:57;;;;;;;;;;;;;;;10.28;100.00;-18304.88;5009295;28;19921;-81
2023/05/02 08:58:22;;;;;;;;;;;;;;;10.45;100.00;-18309.25;5009253;28;20400;-81
2023/05/02 09:00:49;;;;;;;;;;;;;;;10.30;100.00;-18305.28;5011487;28;19923;-81
2023/05/02 09:03:18;;;;;;;;;;;;;;;10.37;100.00;-18307.19;5011259;28;19955;-81
2023/05/02 09:05:46;;;;;;;;;;;;;;;10.52;100.00;-18311.31;5011977;28;20411;-81
2023/05/02 09:08:11;;;;;;;;;;;;;;;10.31;100.00;-18305.69;5004547;28;19925;-81
2023/05/02 09:10:38;;;;;;;;;;;;;;;10.41;100.00;-18308.31;5015072;28;20006;-81
2023/05/02 09:13:39;;;;;;;;;;;;;;;10.35;100.00;-18306.66;5010787;28;19933;-82
2023/05/02 09:16:04;;;;;;;;;;;;;;;10.42;100.00;-18308.44;4933125;29;20420;-81
2023/05/02 09:18:36;;;;;;;;;;;;;;;10.48;100.00;-18310.22;5006360;28;19976;-81
2023/05/02 09:21:07;;;;;;;;;;;;;;;10.45;100.00;-18309.41;5012539;28;22038;-81
2023/05/02 09:23:36;;;;;;;;;;;;;;;10.54;100.00;-18311.88;5012370;28;20012;-81
2023/05/02 09:26:01;;;;;;;;;;;;;;;10.55;100.00;-18312.16;5009619;28;19932;-82
2023/05/02 09:28:40;;;;;;;;;;;;;;;10.48;100.00;-18310.09;5011747;28;19917;-82
2023/05/02 09:31:10;;;;;;;;;;;;;;;10.38;100.00;-18307.47;5010566;28;19928;-81
2023/05/02 09:33:35;;;;;;;;;;;;;;;10.28;100.00;-18304.88;5026367;28;20335;-81
2023/05/02 09:36:01;;;;;;;;;;;;;;;10.32;100.00;-18305.97;5012939;28;19959;-81
2023/05/02 09:38:26;;;;;;;;;;;;;;;10.39;100.00;-18307.75;5012397;28;20116;-81
2023/05/02 09:40:57;;;;;;;;;;;;;;;10.41;100.00;-18308.31;5008501;28;19964;-81
2023/05/02 09:43:23;;;;;;;;;;;;;;;10.39;100.00;-18307.75;5014276;28;19921;-81
2023/05/02 09:46:00;;;;;;;;;;;;;;;10.39;100.00;-18307.75;5011869;28;19939;-82
2023/05/02 09:48:26;;;;;;;;;;;;;;;10.47;100.00;-18309.81;5009305;28;19917;-82
2023/05/02 09:50:52;;;;;;;;;;;;;;;10.53;100.00;-18311.59;5010929;28;19926;-81
2023/05/02 09:53:17;;;;;;;;;;;;;;;10.51;100.00;-18311.06;5012984;28;20301;-81
2023/05/02 09:55:42;;;;;;;;;;;;;;;10.47;100.00;-18309.94;5010885;28;19925;-81
2023/05/02 09:58:19;;;;;;;;;;;;;;;10.74;100.00;-18317.22;5009897;28;20465;-81
2023/05/02 10:00:44;;;;;;;;;;;;;;;10.95;100.00;-18322.72;5012532;28;20004;-81
2023/05/02 10:03:10;;;;;;;;;;;;;;;11.06;100.00;-18325.88;5009551;28;19952;-82
2023/05/02 10:05:37;;;;;;;;;;;;;;;11.11;100.00;-18327.13;5012454;28;19979;-81
2023/05/02 10:08:06;;;;;;;;;;;;;;;11.09;100.00;-18326.56;5009334;28;19985;-81
2023/05/02 10:10:32;;;;;;;;;;;;;;;11.19;100.00;-18329.19;5011461;28;19917;-82
2023/05/02 10:12:58;;;;;;;;;;;;;;;11.37;100.00;-18334.00;5013233;28;19922;-82
2023/05/02 10:15:24;;;;;;;;;;;;;;;11.37;100.00;-18334.00;5011110;28;19940;-82
2023/05/02 10:17:50;;;;;;;;;;;;;;;11.27;100.00;-18331.50;5028328;28;19924;-82
2023/05/02 10:20:24;;;;;;;;;;;;;;;11.02;100.00;-18324.78;5010433;28;19921;-81
2023/05/02 10:22:49;;;;;;;;;;;;;;;10.90;100.00;-18321.50;5015845;28;19917;-81
2023/05/02 10:25:17;;;;;;;;;;;;;;;11.21;100.00;-18329.72;5013521;28;19940;-81
2023/05/02 10:27:43;;;;;;;;;;;;;;;11.35;97.34;-18333.56;5016931;28;19925;-82
2023/05/02 10:30:12;;;;;;;;;;;;;;;11.36;100.00;-18333.84;5011502;28;19917;-81
2023/05/02 10:32:37;;;;;;;;;;;;;;;11.39;100.00;-18334.66;5015694;28;20432;-82
2023/05/02 10:35:03;;;;;;;;;;;;;;;11.26;94.32;-18331.09;5016975;28;19971;-82
2023/05/02 10:37:29;;;;;;;;;;;;;;;11.26;96.22;-18331.09;5016784;28;20351;-82
2023/05/02 10:39:54;;;;;;;;;;;;;;;11.48;100.00;-18337.00;5015997;28;19925;-82
2023/05/02 10:42:20;;;;;;;;;;;;;;;11.65;100.00;-18341.53;5016338;28;19917;-82
2023/05/02 10:44:45;;;;;;;;;;;;;;;11.93;100.00;-18349.09;5016252;28;20015;-82
2023/05/02 10:47:25;;;;;;;;;;;;;;;11.98;94.50;-18350.31;5016982;28;19985;-82
2023/05/02 10:49:51;;;;;;;;;;;;;;;11.79;92.94;-18345.25;5015421;28;20394;-82
2023/05/02 10:52:30;;;;;;;;;;;;;;;11.63;93.00;-18341.13;5016121;28;19922;-82
2023/05/02 10:55:14;;;;;;;;;;;;;;;11.64;99.83;-18341.25;5016385;28;20316;-82
2023/05/02 10:57:58;;;;;;;;;;;;;;;11.58;92.92;-18339.63;5012919;28;19921;-81
2023/05/02 11:00:28;;;;;;;;;;;;;;;11.49;92.99;-18337.41;5015522;28;19984;-81
2023/05/02 11:02:53;;;;;;;;;;;;;;;11.94;99.20;-18349.50;5012894;28;20011;-82
2023/05/02 11:05:20;;;;;;;;;;;;;;;12.10;84.99;-18353.63;5016144;28;19964;-80
2023/05/02 11:07:45;;;;;;;;;;;;;;;12.03;94.18;-18351.84;5016606;28;21070;-82
2023/05/02 11:10:14;;;;;;;;;;;;;;;12.19;90.84;-18356.22;5016481;28;20008;-82
2023/05/02 11:12:44;;;;;;;;;;;;;;;12.13;85.74;-18354.56;5014206;28;19929;-80
2023/05/02 11:15:09;;;;;;;;;;;;;;;11.91;85.77;-18348.69;5019102;28;19980;-82
2023/05/02 11:17:54;;;;;;;;;;;;;;;11.98;93.67;-18350.31;5017562;28;19968;-80
2023/05/02 11:20:20;;;;;;;;;;;;;;;11.93;96.92;-18349.22;5020529;28;19928;-82
2023/05/02 11:22:45;;;;;;;;;;;;;;;12.46;87.99;-18363.34;5017360;28;20020;-81
2023/05/02 11:25:28;;;;;;;;;;;;;;;12.67;84.07;-18368.84;5021881;28;20539;-81
2023/05/02 11:27:53;;;;;;;;;;;;;;;12.38;89.78;-18361.16;5018766;28;20008;-80
2023/05/02 11:30:35;;;;;;;;;;;;;;;12.20;89.23;-18356.38;5011182;28;20353;-82
2023/05/02 11:33:04;;;;;;;;;;;;;;;12.10;92.22;-18353.75;5012086;28;19948;-81
2023/05/02 11:35:30;;;;;;;;;;;;;;;12.44;95.98;-18362.66;5013908;28;20056;-81
2023/05/02 11:38:14;;;;;;;;;;;;;;;12.83;89.99;-18373.38;5015151;28;19917;-81
2023/05/02 11:40:40;;;;;;;;;;;;;;;12.83;86.71;-18373.22;5009491;28;19917;-82
2023/05/02 11:43:15;;;;;;;;;;;;;;;12.92;85.52;-18375.56;5020407;28;20640;-81
2023/05/02 11:45:41;;;;;;;;;;;;;;;12.86;98.76;-18374.19;5015503;28;20004;-82
2023/05/02 11:48:07;;;;;;;;;;;;;;;12.76;85.78;-18371.44;5011752;28;19925;-82
2023/05/02 11:50:32;;;;;;;;;;;;;;;12.28;90.43;-18358.56;5014578;28;19948;-82
2023/05/02 11:52:58;;;;;;;;;;;;;;;12.39;86.23;-18361.44;5017902;28;19921;-82
2023/05/02 11:55:23;;;;;;;;;;;;;;;12.14;85.86;-18354.72;5017448;28;19917;-82
2023/05/02 11:57:48;;;;;;;;;;;;;;;12.01;91.65;-18351.16;5016975;28;20508;-82
2023/05/02 12:00:14;;;;;;;;;;;;;;;12.24;91.69;-18357.47;5013773;28;19921;-82
2023/05/02 12:02:40;;;;;;;;;;;;;;;12.35;87.98;-18360.47;5015809;28;20118;-82
2023/05/02 12:05:06;;;;;;;;;;;;;;;12.52;85.92;-18364.88;5014595;28;20416;-82
2023/05/02 12:07:39;;;;;;;;;;;;;;;13.09;100.00;-18380.22;5015723;28;19968;-82
2023/05/02 12:10:05;;;;;;;;;;;;;;;13.33;86.55;-18386.66;5014522;28;19917;-82
2023/05/02 12:12:30;;;;;;;;;;;;;;;13.23;89.18;-18384.06;5012642;28;19921;-82
2023/05/02 12:14:55;;;;;;;;;;;;;;;12.85;89.28;-18373.91;5030771;28;20419;-82
2023/05/02 12:17:21;;;;;;;;;;;;;;;12.99;88.96;-18377.63;5014874;28;19917;-82
2023/05/02 12:19:47;;;;;;;;;;;;;;;12.84;88.11;-18373.63;5012686;28;20507;-82
2023/05/02 12:22:13;;;;;;;;;;;;;;;12.53;87.36;-18365.28;5009063;28;19932;-82
2023/05/02 12:24:39;;;;;;;;;;;;;;;12.68;97.54;-18369.25;5014562;28;19929;-82
2023/05/02 12:27:15;;;;;;;;;;;;;;;12.76;91.30;-18371.31;5012753;28;19923;-82
2023/05/02 12:29:44;;;;;;;;;;;;;;;12.81;91.94;-18372.81;5011998;28;19933;-82
2023/05/02 12:32:12;;;;;;;;;;;;;;;13.15;97.51;-18381.88;5012930;28;19944;-82